createdAt,value
2022-09-30T00:00:00.000Z,10.42
2022-09-30T00:15:00.000Z,10.28
2022-09-30T00:30:00.000Z,10.31
2022-09-30T00:45:00.000Z,10.39
2022-09-30T01:00:00.000Z,10.47
2022-09-30T01:15:00.000Z,10.44
2022-09-30T01:30:00.000Z,10.43
2022-09-30T01:45:00.000Z,10.51
2022-09-30T02:00:00.000Z,10.47
2022-09-30T02:15:00.000Z,10.51
2022-09-30T02:30:00.000Z,10.53
2022-09-30T02:45:00.000Z,10.52
2022-09-30T03:00:00.000Z,10.59
2022-09-30T03:15:00.000Z,10.58
2022-09-30T03:30:00.000Z,10.53
2022-09-30T03:45:00.000Z,10.47
2022-09-30T04:00:00.000Z,10.47
2022-09-30T04:15:00.000Z,10.44
2022-09-30T04:30:00.000Z,10.47
2022-09-30T04:45:00.000Z,10.4
2022-09-30T05:00:00.000Z,10.5
2022-09-30T05:15:00.000Z,10.54
2022-09-30T05:30:00.000Z,10.53
2022-09-30T05:45:00.000Z,10.57
2022-09-30T06:00:00.000Z,10.66
2022-09-30T06:15:00.000Z,10.81
2022-09-30T06:30:00.000Z,11.2
2022-09-30T06:45:00.000Z,11.54
2022-09-30T07:00:00.000Z,11.98
2022-09-30T07:15:00.000Z,12
2022-09-30T07:30:00.000Z,12.74
2022-09-30T07:45:00.000Z,13.87
2022-09-30T08:00:00.000Z,14.38
2022-09-30T08:15:00.000Z,13.88
2022-09-30T08:30:00.000Z,14.8
2022-09-30T08:45:00.000Z,17.63
2022-09-30T09:00:00.000Z,18.86
2022-09-30T09:15:00.000Z,20.26
2022-09-30T09:30:00.000Z,18.51
2022-09-30T09:45:00.000Z,18.94
2022-09-30T10:00:00.000Z,17.83
2022-09-30T10:15:00.000Z,19.7
2022-09-30T10:30:00.000Z,19.97
2022-09-30T10:45:00.000Z,19.71
2022-09-30T11:00:00.000Z,18.36
2022-09-30T11:15:00.000Z,19.21
2022-09-30T11:30:00.000Z,18.73
2022-09-30T11:45:00.000Z,17.55
2022-09-30T12:00:00.000Z,17.01
2022-09-30T12:15:00.000Z,17.19
2022-09-30T12:30:00.000Z,16.86
2022-09-30T12:45:00.000Z,17.24
2022-09-30T13:00:00.000Z,16.58
2022-09-30T13:15:00.000Z,16.59
2022-09-30T13:30:00.000Z,16.43
2022-09-30T13:45:00.000Z,16.24
2022-09-30T14:00:00.000Z,16.09
2022-09-30T14:15:00.000Z,15.95
2022-09-30T14:30:00.000Z,15.85
2022-09-30T14:45:00.000Z,15.79
2022-09-30T15:00:00.000Z,15.7
2022-09-30T15:15:00.000Z,15.66
2022-09-30T15:30:00.000Z,15.53
2022-09-30T15:45:00.000Z,15.48
2022-09-30T16:00:00.000Z,15.32
2022-09-30T16:15:00.000Z,15.1
2022-09-30T16:30:00.000Z,14.84
2022-09-30T16:45:00.000Z,14.53
2022-09-30T17:00:00.000Z,14.19
2022-09-30T17:15:00.000Z,13.73
2022-09-30T17:30:00.000Z,13.69
2022-09-30T17:45:00.000Z,13.77
2022-09-30T18:00:00.000Z,13.5
2022-09-30T18:15:00.000Z,13.22
2022-09-30T18:30:00.000Z,13.05
2022-09-30T18:45:00.000Z,12.48
2022-09-30T19:00:00.000Z,12.25
2022-09-30T19:15:00.000Z,12
2022-09-30T19:30:00.000Z,11.99
2022-09-30T19:45:00.000Z,11.74
2022-09-30T20:00:00.000Z,11.41
2022-09-30T20:15:00.000Z,11.13
2022-09-30T20:30:00.000Z,11.07
2022-09-30T20:45:00.000Z,11.09
2022-09-30T21:00:00.000Z,11.44
2022-09-30T21:15:00.000Z,11.65
2022-09-30T21:30:00.000Z,11.61
2022-09-30T21:45:00.000Z,11.57
2022-09-30T22:00:00.000Z,11.81
2022-09-30T22:15:00.000Z,11.91
2022-09-30T22:30:00.000Z,11.83
2022-09-30T22:45:00.000Z,11.92
2022-09-30T23:00:00.000Z,12.22
2022-09-30T23:15:00.000Z,12.24
2022-09-30T23:30:00.000Z,12.17
2022-09-30T23:45:00.000Z,12.05
